Time;durP1;ratioP1;P1;durP2;ratioP2;P2;SDS_P1;SDS_P2;PMS_P1;PMS_P2;Temp;Humidity;BMP_temperature;BMP_pressure;BME280_temperature;BME280_humidity;BME280_pressure;Samples;Min_cycle;Max_cycle;Signal;HPM_P1;HPM_P2
2023/09/23 00:08:18;;;;;;;;;;;;;;;36.20;28.25;97391.22;5011104;28;19940;-93
2023/09/23 00:10:45;;;;;;;;;;;;;;;36.22;29.37;97390.69;5008728;28;19921;-94
2023/09/23 00:13:11;;;;;;;;;;;;;;;35.77;29.22;97396.75;5009580;28;20021;-92
2023/09/23 00:15:41;;;;;;;;;;;;;;;35.82;29.43;97398.81;5008036;28;20277;-93
2023/09/23 00:18:07;;;;;;;;;;;;;;;35.59;29.95;97405.19;5013890;28;19933;-93
2023/09/23 00:20:33;;;;;;;;;;;;;;;35.59;30.12;97391.69;5013353;28;20012;-94
2023/09/23 00:22:59;;;;;;;;;;;;;;;35.81;29.98;97382.94;5014356;28;19972;-94
2023/09/23 00:25:25;;;;;;;;;;;;;;;35.58;30.53;97390.13;5008063;28;19921;-93
2023/09/23 00:27:54;;;;;;;;;;;;;;;35.53;30.80;97387.31;5008454;28;20293;-93
2023/09/23 00:30:22;;;;;;;;;;;;;;;35.60;30.42;97378.16;5004331;28;20026;-93
2023/09/23 00:32:49;;;;;;;;;;;;;;;35.26;31.08;97386.16;5009118;28;19925;-93
2023/09/23 00:35:15;;;;;;;;;;;;;;;35.52;30.64;97378.00;5005943;28;19925;-93
2023/09/23 00:37:42;;;;;;;;;;;;;;;35.63;30.32;97377.91;5014430;28;19992;-92
2023/09/23 00:40:20;;;;;;;;;;;;;;;35.33;30.81;97369.25;5002976;28;19929;-93
2023/09/23 00:42:49;;;;;;;;;;;;;;;35.26;30.81;97357.63;5011307;28;19922;-92
2023/09/23 00:45:16;;;;;;;;;;;;;;;34.87;31.67;97351.31;5005648;28;20456;-92
2023/09/23 00:47:42;;;;;;;;;;;;;;;35.00;31.47;97351.50;5012339;28;19925;-93
2023/09/23 00:50:19;;;;;;;;;;;;;;;34.96;31.72;97356.72;5003978;28;19952;-92
2023/09/23 00:52:47;;;;;;;;;;;;;;;34.91;31.79;97343.25;5015193;28;19929;-92
2023/09/23 00:55:16;;;;;;;;;;;;;;;34.98;31.59;97342.69;5008386;28;20381;-92
2023/09/23 00:57:43;;;;;;;;;;;;;;;34.50;31.96;97349.59;5007104;28;19956;-91
2023/09/23 01:00:23;;;;;;;;;;;;;;;34.40;32.03;97351.16;5012307;28;19947;-92
2023/09/23 01:02:49;;;;;;;;;;;;;;;34.80;31.57;97349.75;5016583;28;20389;-91
2023/09/23 01:05:18;;;;;;;;;;;;;;;34.94;31.54;97339.34;5015377;28;19924;-91
2023/09/23 01:07:48;;;;;;;;;;;;;;;34.73;31.87;97338.91;5014613;28;19976;-92
2023/09/23 01:10:17;;;;;;;;;;;;;;;34.82;31.50;97337.84;5003682;28;19918;-91
2023/09/23 01:12:45;;;;;;;;;;;;;;;34.70;31.50;97345.69;5004728;28;19933;-92
2023/09/23 01:15:12;;;;;;;;;;;;;;;34.95;31.18;97338.81;5004528;28;19918;-92
2023/09/23 01:17:39;;;;;;;;;;;;;;;34.77;31.46;97330.09;5015935;28;19980;-92
2023/09/23 01:20:09;;;;;;;;;;;;;;;34.70;31.37;97334.28;5011284;28;19968;-92
2023/09/23 01:22:36;;;;;;;;;;;;;;;34.81;31.33;97337.06;5000396;28;19921;-93
2023/09/23 01:25:02;;;;;;;;;;;;;;;34.66;31.57;97339.44;5015841;28;19917;-92
2023/09/23 01:27:28;;;;;;;;;;;;;;;34.86;31.37;97339.13;5015364;28;19921;-92
2023/09/23 01:29:54;;;;;;;;;;;;;;;35.00;31.37;97340.09;5022495;28;19922;-92
2023/09/23 01:32:34;;;;;;;;;;;;;;;34.63;31.65;97334.81;5021216;28;19997;-92
2023/09/23 01:35:04;;;;;;;;;;;;;;;34.47;31.68;97344.94;5017013;28;19917;-92
2023/09/23 01:37:31;;;;;;;;;;;;;;;34.90;31.37;97348.16;5015810;28;19917;-93
2023/09/23 01:39:57;;;;;;;;;;;;;;;34.99;31.17;97350.72;5014746;28;20023;-92
2023/09/23 01:42:23;;;;;;;;;;;;;;;34.80;31.22;97360.44;5016664;28;19960;-92
2023/09/23 01:44:49;;;;;;;;;;;;;;;34.55;31.61;97368.81;5017201;28;19926;-92
2023/09/23 01:47:21;;;;;;;;;;;;;;;34.09;32.55;97371.47;5016852;28;20035;-93
2023/09/23 01:49:47;;;;;;;;;;;;;;;34.08;32.36;97358.50;5011358;28;19921;-92
2023/09/23 01:52:16;;;;;;;;;;;;;;;34.60;31.23;97364.38;4997012;28;20405;-92
2023/09/23 01:54:44;;;;;;;;;;;;;;;34.99;30.53;97372.75;4997710;28;19928;-92
2023/09/23 01:57:16;;;;;;;;;;;;;;;35.16;30.43;97376.34;5013001;28;19921;-93
2023/09/23 01:59:43;;;;;;;;;;;;;;;35.21;30.05;97384.91;5021463;28;20285;-93
2023/09/23 02:02:11;;;;;;;;;;;;;;;35.20;30.01;97386.19;5016553;28;20012;-93
2023/09/23 02:04:40;;;;;;;;;;;;;;;35.20;29.88;97391.88;5015641;28;19922;-92
2023/09/23 02:07:13;;;;;;;;;;;;;;;35.28;30.35;97389.25;5013816;28;19925;-93
2023/09/23 02:09:39;;;;;;;;;;;;;;;35.28;30.16;97387.19;5013750;28;19983;-93
2023/09/23 02:12:06;;;;;;;;;;;;;;;35.34;30.28;97381.44;5011091;28;19921;-93
2023/09/23 02:14:32;;;;;;;;;;;;;;;34.78;31.14;97380.91;5014875;28;20024;-92
2023/09/23 02:16:58;;;;;;;;;;;;;;;34.67;30.73;97387.44;5014599;28;19973;-93
2023/09/23 02:19:24;;;;;;;;;;;;;;;34.69;31.04;97401.94;5016549;28;19948;-93
2023/09/23 02:21:51;;;;;;;;;;;;;;;33.34;33.86;97420.78;5015368;28;19925;-93
2023/09/23 02:24:18;;;;;;;;;;;;;;;32.29;36.03;97414.53;5028457;28;20246;-91
2023/09/23 02:26:48;;;;;;;;;;;;;;;32.52;35.77;97411.34;5032815;28;19987;-92
2023/09/23 02:29:15;;;;;;;;;;;;;;;31.97;36.78;97428.75;5016564;28;19922;-95
2023/09/23 02:31:46;;;;;;;;;;;;;;;32.06;36.85;97430.63;5015451;28;19922;-93
2023/09/23 02:34:16;;;;;;;;;;;;;;;31.41;38.09;97415.28;5016726;28;20020;-92
2023/09/23 02:36:45;;;;;;;;;;;;;;;31.28;38.48;97412.81;5011594;28;19922;-90
2023/09/23 02:39:20;;;;;;;;;;;;;;;31.05;39.18;97413.84;5015454;28;19940;-91
2023/09/23 02:41:46;;;;;;;;;;;;;;;31.30;38.92;97412.28;4999244;28;19918;-92
2023/09/23 02:44:14;;;;;;;;;;;;;;;31.30;38.72;97415.91;5014966;28;20008;-89
2023/09/23 02:46:41;;;;;;;;;;;;;;;31.16;39.17;97424.50;5029784;28;19944;-92
2023/09/23 02:49:09;;;;;;;;;;;;;;;32.25;37.04;97433.88;5035632;28;20396;-91
2023/09/23 02:51:36;;;;;;;;;;;;;;;31.65;37.97;97449.09;5023918;28;20012;-90
2023/09/23 02:54:05;;;;;;;;;;;;;;;31.72;37.99;97455.06;5014914;28;20000;-93
2023/09/23 02:56:35;;;;;;;;;;;;;;;32.59;36.08;97452.75;5014757;28;19921;-92
2023/09/23 02:59:03;;;;;;;;;;;;;;;31.48;37.72;97443.25;5015484;28;19957;-90
2023/09/23 03:01:30;;;;;;;;;;;;;;;32.14;36.61;97445.16;5015882;28;19979;-92
2023/09/23 03:04:05;;;;;;;;;;;;;;;32.06;36.73;97444.84;5015074;28;19924;-93
2023/09/23 03:06:32;;;;;;;;;;;;;;;31.37;37.36;97455.19;5015266;28;20000;-92
2023/09/23 03:08:59;;;;;;;;;;;;;;;32.17;36.11;97466.88;5016003;28;20289;-92
2023/09/23 03:11:26;;;;;;;;;;;;;;;32.63;35.05;97465.44;5018914;28;19975;-92
2023/09/23 03:13:52;;;;;;;;;;;;;;;32.08;35.84;97484.88;5014584;28;20028;-91
2023/09/23 03:16:28;;;;;;;;;;;;;;;31.00;37.98;97498.81;5014865;28;19975;-90
2023/09/23 03:19:10;;;;;;;;;;;;;;;30.78;37.88;97502.13;5015071;28;19925;-92
2023/09/23 03:21:42;;;;;;;;;;;;;;;31.65;36.73;97492.41;5009888;28;19917;-93
2023/09/23 03:24:10;;;;;;;;;;;;;;;31.86;35.86;97490.31;5011875;28;20024;-90
2023/09/23 03:26:36;;;;;;;;;;;;;;;31.79;36.16;97494.38;5015604;28;19968;-92
2023/09/23 03:29:06;;;;;;;;;;;;;;;31.17;37.03;97494.94;5033652;28;20377;-92
2023/09/23 03:31:32;;;;;;;;;;;;;;;31.01;37.04;97491.88;5014854;28;19921;-92
2023/09/23 03:34:03;;;;;;;;;;;;;;;31.81;35.90;97494.66;5022165;28;20407;-95
2023/09/23 03:36:31;;;;;;;;;;;;;;;31.99;35.24;97499.25;5011207;28;20309;-91
2023/09/23 03:39:00;;;;;;;;;;;;;;;32.57;34.44;97501.59;5005097;28;19929;-92
2023/09/23 03:41:27;;;;;;;;;;;;;;;32.61;34.06;97507.81;5015090;28;20408;-91
2023/09/23 03:43:53;;;;;;;;;;;;;;;32.68;34.22;97512.25;5013479;28;20138;-93
2023/09/23 03:46:19;;;;;;;;;;;;;;;32.67;33.85;97522.81;5011876;28;19921;-92
2023/09/23 03:48:46;;;;;;;;;;;;;;;33.23;32.86;97521.13;4996858;28;20028;-93
2023/09/23 03:51:14;;;;;;;;;;;;;;;33.22;32.95;97510.25;4995822;28;19918;-92
2023/09/23 03:53:41;;;;;;;;;;;;;;;32.94;33.16;97501.53;4995512;28;19949;-92
2023/09/23 03:56:07;;;;;;;;;;;;;;;32.66;34.00;97501.38;5029019;28;19920;-91
2023/09/23 03:58:33;;;;;;;;;;;;;;;32.70;33.51;97507.59;5013476;28;19975;-91
2023/09/23 04:01:06;;;;;;;;;;;;;;;32.00;34.77;97520.69;5017632;28;19924;-92
2023/09/23 04:03:34;;;;;;;;;;;;;;;31.96;35.13;97529.44;5034472;28;19918;-92
2023/09/23 04:06:00;;;;;;;;;;;;;;;31.67;35.39;97535.28;5034002;28;19924;-92
2023/09/23 04:08:26;;;;;;;;;;;;;;;31.28;35.94;97542.50;5029219;28;19921;-93
2023/09/23 04:10:52;;;;;;;;;;;;;;;31.53;35.93;97544.66;4998249;28;20330;-93
2023/09/23 04:13:19;;;;;;;;;;;;;;;31.53;35.83;97538.97;5015358;28;20063;-91
2023/09/23 04:15:44;;;;;;;;;;;;;;;31.69;35.19;97538.41;5010767;28;19926;-90
2023/09/23 04:18:11;;;;;;;;;;;;;;;31.09;36.55;97532.72;5007422;28;20415;-94
2023/09/23 04:20:37;;;;;;;;;;;;;;;31.76;35.38;97540.81;5007976;28;20439;-93
2023/09/23 04:23:03;;;;;;;;;;;;;;;31.94;35.00;97526.28;5032491;28;19917;-92
2023/09/23 04:25:29;;;;;;;;;;;;;;;31.92;35.31;97525.22;5027848;28;20280;-93
2023/09/23 04:27:55;;;;;;;;;;;;;;;32.60;33.90;97522.53;5018407;28;20292;-93
2023/09/23 04:30:22;;;;;;;;;;;;;;;32.79;33.25;97520.06;5010791;28;19921;-93
2023/09/23 04:32:48;;;;;;;;;;;;;;;32.34;34.12;97533.13;5007925;28;19925;-93
2023/09/23 04:35:17;;;;;;;;;;;;;;;32.79;33.14;97537.94;5014943;28;19921;-93
2023/09/23 04:37:43;;;;;;;;;;;;;;;33.00;33.19;97533.63;5020899;28;20296;-93
2023/09/23 04:40:10;;;;;;;;;;;;;;;32.55;33.45;97526.09;5012800;28;19921;-91
2023/09/23 04:42:37;;;;;;;;;;;;;;;32.19;34.43;97543.84;5013872;28;19917;-93
2023/09/23 04:45:03;;;;;;;;;;;;;;;32.51;33.66;97546.22;5015151;28;20055;-93
2023/09/23 04:47:30;;;;;;;;;;;;;;;32.91;33.07;97536.69;5009489;28;19929;-92
2023/09/23 04:49:58;;;;;;;;;;;;;;;32.98;32.85;97544.00;4996680;28;19929;-92
2023/09/23 04:52:25;;;;;;;;;;;;;;;32.82;33.24;97544.63;5022847;28;19927;-94
2023/09/23 04:54:56;;;;;;;;;;;;;;;33.06;32.84;97548.72;5011166;28;20266;-91
2023/09/23 04:57:22;;;;;;;;;;;;;;;32.97;32.75;97554.59;5018541;28;19928;-90
2023/09/23 04:59:48;;;;;;;;;;;;;;;32.58;33.24;97542.16;5020187;28;19956;-89
2023/09/23 05:02:17;;;;;;;;;;;;;;;32.05;33.90;97543.47;5011280;28;19922;-87
2023/09/23 05:04:46;;;;;;;;;;;;;;;32.32;33.72;97547.06;5012634;28;19918;-88
2023/09/23 05:07:12;;;;;;;;;;;;;;;32.41;33.10;97553.38;5011211;28;19921;-91
2023/09/23 05:09:39;;;;;;;;;;;;;;;32.89;32.50;97549.84;5013091;28;20032;-91
2023/09/23 05:12:05;;;;;;;;;;;;;;;32.73;32.59;97559.84;5004893;28;19957;-88
2023/09/23 05:14:31;;;;;;;;;;;;;;;32.71;32.65;97559.56;4997663;28;19968;-91
2023/09/23 05:16:58;;;;;;;;;;;;;;;33.15;32.03;97576.19;5009510;28;19926;-93
2023/09/23 05:19:27;;;;;;;;;;;;;;;33.27;31.61;97586.34;5011972;28;19922;-92
2023/09/23 05:21:53;;;;;;;;;;;;;;;32.29;32.82;97582.16;5014955;28;19918;-89
2023/09/23 05:24:20;;;;;;;;;;;;;;;31.93;33.70;97592.09;5010124;28;19931;-91
2023/09/23 05:26:48;;;;;;;;;;;;;;;31.65;34.19;97597.44;5009664;28;19990;-92
2023/09/23 05:29:14;;;;;;;;;;;;;;;31.88;33.60;97584.31;4998335;28;19929;-94
2023/09/23 05:31:41;;;;;;;;;;;;;;;32.81;32.31;97585.75;5005794;28;19921;-93
2023/09/23 05:34:07;;;;;;;;;;;;;;;33.20;31.73;97581.91;5010636;28;19906;-96
2023/09/23 05:36:33;;;;;;;;;;;;;;;33.21;31.42;97586.28;5017515;28;19921;-95
2023/09/23 05:38:59;;;;;;;;;;;;;;;32.93;31.81;97585.31;5003063;28;20056;-91
2023/09/23 05:41:39;;;;;;;;;;;;;;;33.33;30.91;97579.38;5006898;28;19922;-91
2023/09/23 05:44:05;;;;;;;;;;;;;;;32.95;31.43;97584.81;5008716;28;19956;-89
2023/09/23 05:46:31;;;;;;;;;;;;;;;32.90;31.74;97589.19;5006961;28;19933;-90
2023/09/23 05:48:57;;;;;;;;;;;;;;;33.07;31.54;97607.16;5004950;28;19976;-90
2023/09/23 05:51:23;;;;;;;;;;;;;;;33.22;31.42;97610.63;5009090;28;19917;-93
2023/09/23 05:53:49;;;;;;;;;;;;;;;33.19;31.41;97616.53;5003304;28;20425;-91
2023/09/23 05:56:15;;;;;;;;;;;;;;;33.09;31.27;97613.16;5008827;28;19980;-87
2023/09/23 05:58:41;;;;;;;;;;;;;;;32.74;32.00;97612.59;4998837;28;20437;-96
2023/09/23 06:01:07;;;;;;;;;;;;;;;32.84;31.67;97616.78;5012963;28;20008;-90
2023/09/23 06:03:33;;;;;;;;;;;;;;;32.39;32.57;97629.81;5022461;28;19924;-88
2023/09/23 06:06:00;;;;;;;;;;;;;;;32.50;32.28;97641.31;5009238;28;20401;-87
2023/09/23 06:08:26;;;;;;;;;;;;;;;32.58;32.01;97633.13;5003091;28;19964;-89
2023/09/23 06:10:52;;;;;;;;;;;;;;;32.47;32.47;97639.44;5014400;28;19928;-89
2023/09/23 06:13:18;;;;;;;;;;;;;;;31.90;33.29;97641.38;5008123;28;19922;-88
2023/09/23 06:15:44;;;;;;;;;;;;;;;31.87;33.51;97651.69;5019789;28;19949;-88
2023/09/23 06:18:10;;;;;;;;;;;;;;;31.67;33.75;97656.59;5015686;28;19960;-88
2023/09/23 06:20:37;;;;;;;;;;;;;;;31.87;33.21;97654.53;5012644;28;19921;-88
2023/09/23 06:23:03;;;;;;;;;;;;;;;32.19;32.69;97648.97;4997040;28;19922;-87
2023/09/23 06:25:30;;;;;;;;;;;;;;;32.46;32.14;97663.47;5010035;28;19921;-89
2023/09/23 06:27:56;;;;;;;;;;;;;;;32.62;32.04;97662.09;5006069;28;19922;-88
2023/09/23 06:30:22;;;;;;;;;;;;;;;33.02;31.62;97664.81;4998036;28;19921;-90
2023/09/23 06:32:48;;;;;;;;;;;;;;;33.23;30.93;97682.56;5011685;28;19955;-90
2023/09/23 06:35:14;;;;;;;;;;;;;;;33.34;30.97;97679.78;5012539;28;20389;-91
2023/09/23 06:37:40;;;;;;;;;;;;;;;33.56;30.65;97684.88;5013956;28;19922;-91
2023/09/23 06:40:06;;;;;;;;;;;;;;;33.69;30.80;97688.84;5007167;28;19918;-93
2023/09/23 06:42:32;;;;;;;;;;;;;;;33.30;30.92;97699.94;5010637;28;19968;-92
2023/09/23 06:44:59;;;;;;;;;;;;;;;33.02;31.15;97704.66;5019635;28;19926;-92
2023/09/23 06:47:25;;;;;;;;;;;;;;;32.67;32.02;97715.41;4996727;28;19969;-92
2023/09/23 06:49:50;;;;;;;;;;;;;;;32.90;31.74;97719.22;5008253;28;19968;-92
2023/09/23 06:52:16;;;;;;;;;;;;;;;32.57;31.62;97729.00;5011800;28;19976;-92
2023/09/23 06:54:42;;;;;;;;;;;;;;;32.60;31.80;97736.50;5010339;28;19928;-93
2023/09/23 06:57:08;;;;;;;;;;;;;;;32.03;32.58;97747.69;5002162;28;20392;-93
2023/09/23 06:59:34;;;;;;;;;;;;;;;32.06;32.55;97755.25;5011798;28;20432;-93
2023/09/23 07:02:00;;;;;;;;;;;;;;;31.62;32.97;97754.59;5005518;28;20001;-92
2023/09/23 07:04:28;;;;;;;;;;;;;;;31.55;33.12;97752.16;5007490;28;19948;-93
2023/09/23 07:06:54;;;;;;;;;;;;;;;31.99;32.67;97769.06;5001683;28;20337;-92
2023/09/23 07:09:20;;;;;;;;;;;;;;;31.74;32.90;97773.31;5008048;28;19940;-92
2023/09/23 07:11:46;;;;;;;;;;;;;;;32.05;32.34;97772.75;5012403;28;19960;-93
2023/09/23 07:14:12;;;;;;;;;;;;;;;32.41;32.09;97774.25;5010803;28;19922;-92
2023/09/23 07:16:38;;;;;;;;;;;;;;;32.61;31.63;97777.09;5009487;28;19933;-92
2023/09/23 07:19:04;;;;;;;;;;;;;;;33.25;30.92;97777.53;5003072;28;20096;-93
2023/09/23 07:21:30;;;;;;;;;;;;;;;33.40;30.59;97769.63;5007388;28;19925;-93
2023/09/23 07:23:56;;;;;;;;;;;;;;;33.36;30.34;97765.44;5008699;28;19929;-92
2023/09/23 07:26:22;;;;;;;;;;;;;;;33.24;30.64;97781.66;5008604;28;19961;-92
2023/09/23 07:28:51;;;;;;;;;;;;;;;33.33;30.94;97766.44;5010166;28;19964;-92
2023/09/23 07:31:17;;;;;;;;;;;;;;;33.44;30.63;97763.72;5005542;28;19922;-92
2023/09/23 07:33:44;;;;;;;;;;;;;;;33.48;30.70;97757.78;5004723;28;20365;-92
2023/09/23 07:36:13;;;;;;;;;;;;;;;33.43;30.97;97756.44;5003633;28;20012;-92
2023/09/23 07:38:39;;;;;;;;;;;;;;;33.21;31.29;97764.81;5008629;28;19922;-93
2023/09/23 07:41:06;;;;;;;;;;;;;;;33.42;31.27;97761.34;5004916;28;19928;-92
2023/09/23 07:43:32;;;;;;;;;;;;;;;33.22;30.79;97764.31;5015417;28;20300;-91
2023/09/23 07:45:58;;;;;;;;;;;;;;;32.95;31.49;97756.28;5010294;28;19921;-91
2023/09/23 07:48:24;;;;;;;;;;;;;;;33.04;31.13;97761.03;5007366;28;20020;-90
2023/09/23 07:50:50;;;;;;;;;;;;;;;32.85;32.03;97771.16;5003509;28;19922;-92
2023/09/23 07:53:17;;;;;;;;;;;;;;;32.71;32.15;97782.13;5011011;28;19928;-92
2023/09/23 07:55:43;;;;;;;;;;;;;;;32.66;32.35;97782.06;5011655;28;20016;-93
2023/09/23 07:58:09;;;;;;;;;;;;;;;33.03;31.69;97765.16;5003775;28;19926;-92
2023/09/23 08:00:35;;;;;;;;;;;;;;;33.42;31.51;97763.44;5007157;28;19921;-92
2023/09/23 08:03:01;;;;;;;;;;;;;;;33.89;30.31;97764.78;5006028;28;19928;-93
2023/09/23 08:05:29;;;;;;;;;;;;;;;33.91;30.15;97765.09;5009587;28;19925;-92
2023/09/23 08:07:55;;;;;;;;;;;;;;;33.58;30.86;97762.03;4999001;28;19961;-90
2023/09/23 08:10:21;;;;;;;;;;;;;;;33.20;30.99;97771.78;5002922;28;20073;-90
2023/09/23 08:12:47;;;;;;;;;;;;;;;32.85;31.29;97774.00;5006222;28;19928;-89
2023/09/23 08:15:13;;;;;;;;;;;;;;;32.78;31.79;97778.06;5002355;28;19967;-91
2023/09/23 08:17:40;;;;;;;;;;;;;;;32.11;32.42;97770.78;5006835;28;19933;-91
2023/09/23 08:20:17;;;;;;;;;;;;;;;32.49;32.33;97784.72;5017715;28;19926;-90
2023/09/23 08:22:44;;;;;;;;;;;;;;;32.77;31.64;97793.56;5015128;28;20324;-92
2023/09/23 08:25:11;;;;;;;;;;;;;;;32.77;31.59;97796.41;5016663;28;20293;-92
2023/09/23 08:27:38;;;;;;;;;;;;;;;32.92;31.46;97804.84;5013646;28;19928;-91
2023/09/23 08:30:05;;;;;;;;;;;;;;;33.34;31.01;97797.28;5009161;28;19926;-92
2023/09/23 08:32:31;;;;;;;;;;;;;;;33.09;31.12;97808.69;5014553;28;20377;-91
2023/09/23 08:34:57;;;;;;;;;;;;;;;32.63;31.70;97808.66;5008829;28;19922;-91
2023/09/23 08:37:23;;;;;;;;;;;;;;;33.17;31.22;97809.78;5010870;28;20668;-91
2023/09/23 08:39:49;;;;;;;;;;;;;;;33.49;30.56;97802.03;5003867;28;19928;-92
2023/09/23 08:42:18;;;;;;;;;;;;;;;33.79;30.21;97801.28;5002360;28;19925;-89
2023/09/23 08:44:44;;;;;;;;;;;;;;;34.12;30.08;97814.97;5003464;28;20385;-90
2023/09/23 08:47:10;;;;;;;;;;;;;;;33.98;29.68;97839.44;5004730;28;19926;-92
2023/09/23 08:49:37;;;;;;;;;;;;;;;33.40;30.28;97840.78;5002091;28;19928;-89
2023/09/23 08:52:04;;;;;;;;;;;;;;;32.82;30.91;97829.81;5004819;28;20488;-91
2023/09/23 08:54:31;;;;;;;;;;;;;;;33.04;30.88;97830.09;5006089;28;20581;-91
2023/09/23 08:56:57;;;;;;;;;;;;;;;32.97;31.70;97843.94;5007013;28;19968;-91
2023/09/23 08:59:26;;;;;;;;;;;;;;;32.99;31.21;97866.97;5006272;28;19917;-91
2023/09/23 09:01:53;;;;;;;;;;;;;;;33.39;30.63;97861.22;5022345;28;19928;-91
2023/09/23 09:04:19;;;;;;;;;;;;;;;33.39;30.56;97847.78;5003364;28;19926;-90
2023/09/23 09:06:58;;;;;;;;;;;;;;;33.16;31.05;97846.00;5007422;28;20012;-91
2023/09/23 09:09:25;;;;;;;;;;;;;;;32.69;31.60;97841.56;5012380;28;19930;-90
2023/09/23 09:11:53;;;;;;;;;;;;;;;32.25;32.19;97831.66;5009622;28;20012;-88
2023/09/23 09:14:20;;;;;;;;;;;;;;;32.72;32.12;97837.72;5009291;28;19928;-89
2023/09/23 09:16:45;;;;;;;;;;;;;;;32.10;32.31;97845.91;5006721;28;20389;-89
2023/09/23 09:19:12;;;;;;;;;;;;;;;31.53;33.88;97839.81;5010395;28;19975;-89
2023/09/23 09:21:38;;;;;;;;;;;;;;;31.71;33.53;97850.97;5008563;28;19922;-92
2023/09/23 09:24:04;;;;;;;;;;;;;;;31.88;33.11;97851.25;5015528;28;20318;-93
2023/09/23 09:26:31;;;;;;;;;;;;;;;31.99;33.07;97849.38;5007425;28;19960;-93
2023/09/23 09:28:57;;;;;;;;;;;;;;;32.05;32.82;97847.41;5008844;28;19925;-94
2023/09/23 09:31:28;;;;;;;;;;;;;;;32.00;32.66;97839.56;5010534;28;19971;-94
2023/09/23 09:33:56;;;;;;;;;;;;;;;31.90;33.37;97863.66;5007470;28;20380;-91
2023/09/23 09:36:23;;;;;;;;;;;;;;;31.54;33.67;97878.31;5009816;28;19929;-89
2023/09/23 09:38:51;;;;;;;;;;;;;;;31.27;33.76;97889.91;5005144;28;19921;-89
2023/09/23 09:41:21;;;;;;;;;;;;;;;31.82;33.33;97884.44;5012583;28;19922;-90
2023/09/23 09:43:48;;;;;;;;;;;;;;;32.31;32.56;97867.41;5009475;28;20860;-89
2023/09/23 09:46:14;;;;;;;;;;;;;;;32.46;32.96;97853.94;5009835;28;19933;-90
2023/09/23 09:48:41;;;;;;;;;;;;;;;32.35;33.23;97853.00;5004814;28;19921;-92
2023/09/23 09:51:08;;;;;;;;;;;;;;;33.01;32.88;97864.41;5006857;28;19921;-92
2023/09/23 09:53:36;;;;;;;;;;;;;;;33.42;31.12;97869.53;5009738;28;20018;-91
2023/09/23 09:56:04;;;;;;;;;;;;;;;33.15;31.43;97866.41;5006405;28;19929;-87
2023/09/23 09:58:37;;;;;;;;;;;;;;;33.16;31.77;97879.38;5011399;28;20019;-90
2023/09/23 10:01:04;;;;;;;;;;;;;;;32.99;31.55;97872.66;5006660;28;19928;-90
2023/09/23 10:03:30;;;;;;;;;;;;;;;32.89;31.60;97883.41;5003071;28;20293;-92
2023/09/23 10:06:00;;;;;;;;;;;;;;;32.83;31.55;97876.91;5022034;28;19922;-90
2023/09/23 10:08:34;;;;;;;;;;;;;;;32.88;32.02;97884.72;5006790;28;20385;-88
2023/09/23 10:11:04;;;;;;;;;;;;;;;33.13;31.99;97883.19;5004488;28;19930;-89
2023/09/23 10:13:33;;;;;;;;;;;;;;;33.73;31.63;97887.94;5004999;28;20258;-89
2023/09/23 10:16:27;;;;;;;;;;;;;;;33.97;31.33;97874.16;5009129;28;19924;-89
2023/09/23 10:18:54;;;;;;;;;;;;;;;32.96;31.78;97871.59;5012964;28;19926;-89
2023/09/23 10:21:21;;;;;;;;;;;;;;;32.92;31.80;97867.41;5009254;28;19968;-92
2023/09/23 10:23:49;;;;;;;;;;;;;;;32.94;31.83;97868.47;5005821;28;20019;-90
2023/09/23 10:26:19;;;;;;;;;;;;;;;33.00;31.58;97869.31;5009997;28;20369;-91
2023/09/23 10:28:57;;;;;;;;;;;;;;;33.34;31.49;97865.59;5010673;28;20004;-88
2023/09/23 10:31:26;;;;;;;;;;;;;;;33.56;31.20;97862.16;5010262;28;19961;-88
2023/09/23 10:33:53;;;;;;;;;;;;;;;33.73;31.00;97850.91;5005687;28;19928;-88
2023/09/23 10:36:20;;;;;;;;;;;;;;;33.98;31.19;97848.00;5007597;28;19922;-88
2023/09/23 10:38:46;;;;;;;;;;;;;;;33.41;31.02;97859.44;5008163;28;19971;-87
2023/09/23 10:41:12;;;;;;;;;;;;;;;33.44;30.85;97864.09;5007384;28;19929;-87
2023/09/23 10:43:38;;;;;;;;;;;;;;;33.55;31.47;97860.63;5006042;28;19934;-88
2023/09/23 10:46:05;;;;;;;;;;;;;;;33.62;30.74;97854.47;5003875;28;19930;-87
2023/09/23 10:48:31;;;;;;;;;;;;;;;33.71;30.97;97847.81;5008013;28;20011;-86
2023/09/23 10:50:58;;;;;;;;;;;;;;;33.61;30.99;97857.84;5008258;28;20382;-87
2023/09/23 10:53:25;;;;;;;;;;;;;;;34.08;31.19;97857.16;5005755;28;20127;-87
2023/09/23 10:55:51;;;;;;;;;;;;;;;34.52;30.79;97860.28;5005363;28;19932;-90
2023/09/23 10:58:17;;;;;;;;;;;;;;;34.79;30.11;97850.31;5034035;28;20285;-89
2023/09/23 11:00:44;;;;;;;;;;;;;;;34.93;28.80;97857.09;5011204;28;19917;-89
2023/09/23 11:03:11;;;;;;;;;;;;;;;34.61;29.84;97857.22;5009123;28;20764;-89
2023/09/23 11:05:38;;;;;;;;;;;;;;;34.83;29.47;97847.97;5006568;28;19926;-89
2023/09/23 11:08:05;;;;;;;;;;;;;;;34.28;29.55;97839.16;5010204;28;19926;-88
2023/09/23 11:10:31;;;;;;;;;;;;;;;33.95;30.34;97829.09;5012087;28;20419;-88
2023/09/23 11:12:58;;;;;;;;;;;;;;;33.44;30.81;97834.88;5011508;28;20023;-87
2023/09/23 11:15:24;;;;;;;;;;;;;;;33.22;30.82;97840.34;5008682;28;20331;-88
2023/09/23 11:17:52;;;;;;;;;;;;;;;33.52;30.90;97844.50;5012392;28;19933;-88
2023/09/23 11:20:26;;;;;;;;;;;;;;;33.46;30.97;97837.22;5005277;28;20316;-89
2023/09/23 11:22:56;;;;;;;;;;;;;;;33.56;31.13;97818.69;5003848;28;19925;-87
2023/09/23 11:25:24;;;;;;;;;;;;;;;32.87;32.02;97809.19;5006212;28;20136;-87
2023/09/23 11:27:50;;;;;;;;;;;;;;;32.08;33.10;97798.13;5005738;28;19925;-88
2023/09/23 11:30:17;;;;;;;;;;;;;;;32.20;34.38;97803.94;5010323;28;19936;-87
2023/09/23 11:32:43;;;;;;;;;;;;;;;32.83;32.33;97808.63;5013354;28;19953;-87
2023/09/23 11:35:09;;;;;;;;;;;;;;;33.58;31.29;97805.53;5016426;28;19975;-88
2023/09/23 11:37:35;;;;;;;;;;;;;;;33.51;31.32;97819.41;5008019;28;19922;-88
2023/09/23 11:40:03;;;;;;;;;;;;;;;34.25;30.64;97823.84;5010258;28;19929;-88
2023/09/23 11:42:29;;;;;;;;;;;;;;;34.65;30.47;97826.41;5011898;28;20374;-88
2023/09/23 11:44:55;;;;;;;;;;;;;;;34.58;28.98;97828.97;5011890;28;19960;-88
2023/09/23 11:47:22;;;;;;;;;;;;;;;34.24;29.07;97830.06;5009315;28;19940;-88
2023/09/23 11:49:48;;;;;;;;;;;;;;;34.25;29.51;97823.84;5009403;28;19937;-88
2023/09/23 11:52:14;;;;;;;;;;;;;;;34.09;29.79;97827.38;5007613;28;19921;-87
2023/09/23 11:54:40;;;;;;;;;;;;;;;34.07;29.74;97830.72;5006892;28;19956;-87
2023/09/23 11:57:06;;;;;;;;;;;;;;;33.96;30.12;97824.16;5007778;28;19928;-89
2023/09/23 11:59:32;;;;;;;;;;;;;;;33.74;30.22;97832.56;5016126;28;19922;-88
2023/09/23 12:01:58;;;;;;;;;;;;;;;33.49;30.86;97836.22;5003956;28;19968;-89
2023/09/23 12:04:24;;;;;;;;;;;;;;;33.63;30.74;97829.63;5008038;28;19960;-88
2023/09/23 12:06:50;;;;;;;;;;;;;;;33.34;30.85;97834.28;5006132;28;20335;-88
2023/09/23 12:09:16;;;;;;;;;;;;;;;33.46;31.04;97831.50;5004357;28;19921;-89
2023/09/23 12:11:42;;;;;;;;;;;;;;;33.70;30.48;97834.88;5004478;28;20028;-88
2023/09/23 12:14:09;;;;;;;;;;;;;;;33.35;30.91;97840.75;5008858;28;19922;-89
2023/09/23 12:16:35;;;;;;;;;;;;;;;33.26;30.85;97847.38;5008454;28;19933;-90
2023/09/23 12:19:01;;;;;;;;;;;;;;;33.12;31.31;97848.28;5005321;28;19949;-91
2023/09/23 12:21:27;;;;;;;;;;;;;;;33.44;30.84;97855.56;5005007;28;19922;-90
2023/09/23 12:23:59;;;;;;;;;;;;;;;33.53;30.60;97851.81;5008344;28;19925;-90
2023/09/23 12:26:26;;;;;;;;;;;;;;;33.33;31.11;97863.22;5006840;28;19925;-90
2023/09/23 12:28:52;;;;;;;;;;;;;;;33.60;30.47;97870.50;5005662;28;20408;-86
2023/09/23 12:31:18;;;;;;;;;;;;;;;33.31;30.72;97869.44;5001890;28;20013;-87
2023/09/23 12:33:44;;;;;;;;;;;;;;;33.24;31.18;97861.34;5005466;28;19933;-90
2023/09/23 12:36:10;;;;;;;;;;;;;;;33.33;30.97;97868.91;5012213;28;20056;-89
2023/09/23 12:38:36;;;;;;;;;;;;;;;33.24;31.32;97867.03;5008326;28;19930;-85
2023/09/23 12:41:02;;;;;;;;;;;;;;;33.22;31.01;97880.97;5017036;28;19928;-84
2023/09/23 12:43:28;;;;;;;;;;;;;;;33.23;31.34;97893.16;5009060;28;19921;-85
2023/09/23 12:45:54;;;;;;;;;;;;;;;33.50;31.25;97901.19;5013277;28;19968;-86
2023/09/23 12:48:20;;;;;;;;;;;;;;;33.32;31.31;97902.31;5009755;28;20313;-85
2023/09/23 12:50:46;;;;;;;;;;;;;;;32.75;31.86;97902.13;5012703;28;19929;-84
2023/09/23 12:53:12;;;;;;;;;;;;;;;32.06;33.42;97902.94;5019377;28;20312;-84
2023/09/23 12:55:38;;;;;;;;;;;;;;;31.63;33.58;97892.38;5016715;28;19922;-84